sensor_id;sensor_type;location;lat;lon;timestamp;temperature;humidity
16392;DHT22;8305;-33.882;151.134;2023-03-14T00:02:13;21.00;99.90
16392;DHT22;8305;-33.882;151.134;2023-03-14T00:04:44;21.00;99.90
16392;DHT22;8305;-33.882;151.134;2023-03-14T00:07:15;20.90;99.90
16392;DHT22;8305;-33.882;151.134;2023-03-14T00:09:46;20.90;99.90
16392;DHT22;8305;-33.882;151.134;2023-03-14T00:12:18;20.90;99.90
16392;DHT22;8305;-33.882;151.134;2023-03-14T00:14:49;20.80;99.90
16392;DHT22;8305;-33.882;151.134;2023-03-14T00:17:22;20.80;99.90
16392;DHT22;8305;-33.882;151.134;2023-03-14T00:19:53;20.80;99.90
16392;DHT22;8305;-33.882;151.134;2023-03-14T00:22:24;20.70;99.90
16392;DHT22;8305;-33.882;151.134;2023-03-14T00:24:57;20.60;99.90
16392;DHT22;8305;-33.882;151.134;2023-03-14T00:27:28;20.60;99.90
16392;DHT22;8305;-33.882;151.134;2023-03-14T00:29:59;20.60;99.90
16392;DHT22;8305;-33.882;151.134;2023-03-14T00:32:33;20.60;99.90
16392;DHT22;8305;-33.882;151.134;2023-03-14T00:35:04;20.70;99.90
16392;DHT22;8305;-33.882;151.134;2023-03-14T00:37:35;20.70;99.90
16392;DHT22;8305;-33.882;151.134;2023-03-14T00:40:07;20.80;99.90
16392;DHT22;8305;-33.882;151.134;2023-03-14T00:42:38;20.80;99.90
16392;DHT22;8305;-33.882;151.134;2023-03-14T00:45:10;20.90;99.90
16392;DHT22;8305;-33.882;151.134;2023-03-14T00:47:43;20.90;99.90
16392;DHT22;8305;-33.882;151.134;2023-03-14T00:50:14;20.90;99.90
16392;DHT22;8305;-33.882;151.134;2023-03-14T00:52:46;20.90;99.90
16392;DHT22;8305;-33.882;151.134;2023-03-14T00:55:17;20.90;99.90
16392;DHT22;8305;-33.882;151.134;2023-03-14T00:57:48;21.00;99.90
16392;DHT22;8305;-33.882;151.134;2023-03-14T01:00:19;21.00;99.90
16392;DHT22;8305;-33.882;151.134;2023-03-14T01:02:53;21.00;99.90
16392;DHT22;8305;-33.882;151.134;2023-03-14T01:05:24;21.00;99.90
16392;DHT22;8305;-33.882;151.134;2023-03-14T01:07:55;21.00;99.90
16392;DHT22;8305;-33.882;151.134;2023-03-14T01:10:26;21.00;99.90
16392;DHT22;8305;-33.882;151.134;2023-03-14T01:12:58;21.00;99.90
16392;DHT22;8305;-33.882;151.134;2023-03-14T01:15:29;21.00;99.90
16392;DHT22;8305;-33.882;151.134;2023-03-14T01:18:02;21.00;99.90
16392;DHT22;8305;-33.882;151.134;2023-03-14T01:20:33;21.00;99.90
16392;DHT22;8305;-33.882;151.134;2023-03-14T01:23:04;21.00;99.90
16392;DHT22;8305;-33.882;151.134;2023-03-14T01:25:35;21.00;99.90
16392;DHT22;8305;-33.882;151.134;2023-03-14T01:28:11;20.90;99.90
16392;DHT22;8305;-33.882;151.134;2023-03-14T01:30:42;20.90;99.90
16392;DHT22;8305;-33.882;151.134;2023-03-14T01:33:15;20.90;99.90
16392;DHT22;8305;-33.882;151.134;2023-03-14T01:35:49;21.00;99.90
16392;DHT22;8305;-33.882;151.134;2023-03-14T01:38:20;21.00;99.90
16392;DHT22;8305;-33.882;151.134;2023-03-14T01:40:51;21.10;99.90
16392;DHT22;8305;-33.882;151.134;2023-03-14T01:43:22;21.10;99.90
16392;DHT22;8305;-33.882;151.134;2023-03-14T01:46:24;21.20;99.90
16392;DHT22;8305;-33.882;151.134;2023-03-14T01:49:10;21.30;99.90
16392;DHT22;8305;-33.882;151.134;2023-03-14T01:51:47;21.20;99.90
16392;DHT22;8305;-33.882;151.134;2023-03-14T01:54:25;21.30;99.90
16392;DHT22;8305;-33.882;151.134;2023-03-14T01:57:01;21.30;99.90
16392;DHT22;8305;-33.882;151.134;2023-03-14T01:59:33;21.40;99.90
16392;DHT22;8305;-33.882;151.134;2023-03-14T02:02:06;21.50;99.90
16392;DHT22;8305;-33.882;151.134;2023-03-14T02:04:40;21.60;99.90
16392;DHT22;8305;-33.882;151.134;2023-03-14T02:07:14;21.60;99.90
16392;DHT22;8305;-33.882;151.134;2023-03-14T02:09:47;21.70;99.90
16392;DHT22;8305;-33.882;151.134;2023-03-14T02:12:19;21.80;99.90
16392;DHT22;8305;-33.882;151.134;2023-03-14T02:14:51;21.90;99.90
16392;DHT22;8305;-33.882;151.134;2023-03-14T02:17:24;22.00;99.90
16392;DHT22;8305;-33.882;151.134;2023-03-14T02:20:15;22.00;99.90
16392;DHT22;8305;-33.882;151.134;2023-03-14T02:22:48;22.00;99.90
16392;DHT22;8305;-33.882;151.134;2023-03-14T02:25:26;22.00;99.90
16392;DHT22;8305;-33.882;151.134;2023-03-14T02:28:03;21.90;99.90
16392;DHT22;8305;-33.882;151.134;2023-03-14T02:30:34;21.80;99.90
16392;DHT22;8305;-33.882;151.134;2023-03-14T02:33:07;21.80;99.90
16392;DHT22;8305;-33.882;151.134;2023-03-14T02:35:41;21.80;99.90
16392;DHT22;8305;-33.882;151.134;2023-03-14T02:38:17;21.90;99.90
16392;DHT22;8305;-33.882;151.134;2023-03-14T02:40:50;21.90;99.90
16392;DHT22;8305;-33.882;151.134;2023-03-14T02:43:23;21.90;99.90
16392;DHT22;8305;-33.882;151.134;2023-03-14T02:45:55;22.00;99.90
16392;DHT22;8305;-33.882;151.134;2023-03-14T02:48:27;21.90;99.90
16392;DHT22;8305;-33.882;151.134;2023-03-14T02:51:01;21.90;99.90
16392;DHT22;8305;-33.882;151.134;2023-03-14T02:53:34;21.80;99.90
16392;DHT22;8305;-33.882;151.134;2023-03-14T02:56:06;21.80;99.90
16392;DHT22;8305;-33.882;151.134;2023-03-14T02:58:40;21.80;99.90
16392;DHT22;8305;-33.882;151.134;2023-03-14T03:01:11;21.80;99.90
16392;DHT22;8305;-33.882;151.134;2023-03-14T03:03:42;21.80;99.90
16392;DHT22;8305;-33.882;151.134;2023-03-14T03:06:13;21.90;99.90
16392;DHT22;8305;-33.882;151.134;2023-03-14T03:08:44;21.80;99.90
16392;DHT22;8305;-33.882;151.134;2023-03-14T03:11:15;21.80;99.90
16392;DHT22;8305;-33.882;151.134;2023-03-14T03:13:48;21.90;99.90
16392;DHT22;8305;-33.882;151.134;2023-03-14T03:16:19;21.90;99.90
16392;DHT22;8305;-33.882;151.134;2023-03-14T03:18:50;22.00;99.90
16392;DHT22;8305;-33.882;151.134;2023-03-14T03:21:21;21.90;99.90
16392;DHT22;8305;-33.882;151.134;2023-03-14T03:23:53;21.80;99.90
16392;DHT22;8305;-33.882;151.134;2023-03-14T03:26:24;21.80;99.90
16392;DHT22;8305;-33.882;151.134;2023-03-14T03:28:57;21.80;99.90
16392;DHT22;8305;-33.882;151.134;2023-03-14T03:31:28;21.70;99.90
16392;DHT22;8305;-33.882;151.134;2023-03-14T03:33:59;21.80;99.90
16392;DHT22;8305;-33.882;151.134;2023-03-14T03:36:30;21.80;99.90
16392;DHT22;8305;-33.882;151.134;2023-03-14T03:39:01;21.80;99.90
16392;DHT22;8305;-33.882;151.134;2023-03-14T03:41:32;21.80;99.90
16392;DHT22;8305;-33.882;151.134;2023-03-14T03:44:06;21.80;99.90
16392;DHT22;8305;-33.882;151.134;2023-03-14T03:46:37;21.70;99.90
16392;DHT22;8305;-33.882;151.134;2023-03-14T03:49:08;21.60;99.90
16392;DHT22;8305;-33.882;151.134;2023-03-14T03:51:40;21.60;99.90
16392;DHT22;8305;-33.882;151.134;2023-03-14T03:54:13;21.50;99.90
16392;DHT22;8305;-33.882;151.134;2023-03-14T03:56:44;21.50;99.90
16392;DHT22;8305;-33.882;151.134;2023-03-14T03:59:17;21.50;99.90
16392;DHT22;8305;-33.882;151.134;2023-03-14T04:01:48;21.50;99.90
16392;DHT22;8305;-33.882;151.134;2023-03-14T04:04:19;21.50;99.90
16392;DHT22;8305;-33.882;151.134;2023-03-14T04:06:50;21.50;99.90
16392;DHT22;8305;-33.882;151.134;2023-03-14T04:09:21;21.50;99.90
16392;DHT22;8305;-33.882;151.134;2023-03-14T04:11:52;21.50;99.90
16392;DHT22;8305;-33.882;151.134;2023-03-14T04:14:25;21.50;99.90
16392;DHT22;8305;-33.882;151.134;2023-03-14T04:16:56;21.50;99.90
16392;DHT22;8305;-33.882;151.134;2023-03-14T04:19:28;21.40;99.90
16392;DHT22;8305;-33.882;151.134;2023-03-14T04:21:59;21.40;99.90
16392;DHT22;8305;-33.882;151.134;2023-03-14T04:24:30;21.40;99.90
16392;DHT22;8305;-33.882;151.134;2023-03-14T04:27:01;21.40;99.90
16392;DHT22;8305;-33.882;151.134;2023-03-14T04:29:34;21.40;99.90
16392;DHT22;8305;-33.882;151.134;2023-03-14T04:32:05;21.40;99.90
16392;DHT22;8305;-33.882;151.134;2023-03-14T04:34:36;21.50;99.90
16392;DHT22;8305;-33.882;151.134;2023-03-14T04:37:07;21.50;99.90
16392;DHT22;8305;-33.882;151.134;2023-03-14T04:39:38;21.50;99.90
16392;DHT22;8305;-33.882;151.134;2023-03-14T04:42:09;21.60;99.90
16392;DHT22;8305;-33.882;151.134;2023-03-14T04:44:42;21.60;99.90
16392;DHT22;8305;-33.882;151.134;2023-03-14T04:47:14;21.60;99.90
16392;DHT22;8305;-33.882;151.134;2023-03-14T04:49:45;21.60;99.90
16392;DHT22;8305;-33.882;151.134;2023-03-14T04:52:17;21.60;99.90
16392;DHT22;8305;-33.882;151.134;2023-03-14T04:54:48;21.70;99.90
16392;DHT22;8305;-33.882;151.134;2023-03-14T04:57:19;21.70;99.90
16392;DHT22;8305;-33.882;151.134;2023-03-14T04:59:53;21.80;99.90
16392;DHT22;8305;-33.882;151.134;2023-03-14T05:02:24;21.70;99.90
16392;DHT22;8305;-33.882;151.134;2023-03-14T05:04:55;21.90;99.90
16392;DHT22;8305;-33.882;151.134;2023-03-14T05:07:26;21.90;99.90
16392;DHT22;8305;-33.882;151.134;2023-03-14T05:09:57;21.90;99.90
16392;DHT22;8305;-33.882;151.134;2023-03-14T05:12:28;22.00;99.90
16392;DHT22;8305;-33.882;151.134;2023-03-14T05:15:01;22.00;99.90
16392;DHT22;8305;-33.882;151.134;2023-03-14T05:17:34;22.00;99.90
16392;DHT22;8305;-33.882;151.134;2023-03-14T05:20:05;22.00;99.90
16392;DHT22;8305;-33.882;151.134;2023-03-14T05:22:41;22.00;99.90
16392;DHT22;8305;-33.882;151.134;2023-03-14T05:25:12;22.10;99.90
16392;DHT22;8305;-33.882;151.134;2023-03-14T05:27:43;22.10;99.90
16392;DHT22;8305;-33.882;151.134;2023-03-14T05:30:17;22.10;99.90
16392;DHT22;8305;-33.882;151.134;2023-03-14T05:32:48;22.20;99.90
16392;DHT22;8305;-33.882;151.134;2023-03-14T05:35:19;22.20;99.90
16392;DHT22;8305;-33.882;151.134;2023-03-14T05:37:50;22.10;99.90
16392;DHT22;8305;-33.882;151.134;2023-03-14T05:40:21;22.20;99.90
16392;DHT22;8305;-33.882;151.134;2023-03-14T05:42:52;22.30;99.90
16392;DHT22;8305;-33.882;151.134;2023-03-14T05:45:25;22.30;99.90
16392;DHT22;8305;-33.882;151.134;2023-03-14T05:47:56;22.40;99.90
16392;DHT22;8305;-33.882;151.134;2023-03-14T05:50:27;22.50;99.90
16392;DHT22;8305;-33.882;151.134;2023-03-14T05:52:59;22.50;99.90
16392;DHT22;8305;-33.882;151.134;2023-03-14T05:55:30;22.60;99.90
16392;DHT22;8305;-33.882;151.134;2023-03-14T05:58:01;22.60;99.90
16392;DHT22;8305;-33.882;151.134;2023-03-14T06:00:34;22.60;99.90
16392;DHT22;8305;-33.882;151.134;2023-03-14T06:03:05;22.60;99.90
16392;DHT22;8305;-33.882;151.134;2023-03-14T06:05:36;22.60;99.90
16392;DHT22;8305;-33.882;151.134;2023-03-14T06:08:07;22.70;99.90
16392;DHT22;8305;-33.882;151.134;2023-03-14T06:10:38;22.70;99.90
16392;DHT22;8305;-33.882;151.134;2023-03-14T06:13:09;22.70;99.90
16392;DHT22;8305;-33.882;151.134;2023-03-14T06:15:43;22.80;99.90
16392;DHT22;8305;-33.882;151.134;2023-03-14T06:18:14;22.80;99.90
16392;DHT22;8305;-33.882;151.134;2023-03-14T06:20:45;22.80;99.90
16392;DHT22;8305;-33.882;151.134;2023-03-14T06:23:16;22.70;99.90
16392;DHT22;8305;-33.882;151.134;2023-03-14T06:25:47;22.70;99.90
16392;DHT22;8305;-33.882;151.134;2023-03-14T06:28:18;22.70;99.90
16392;DHT22;8305;-33.882;151.134;2023-03-14T06:30:51;22.80;99.90
16392;DHT22;8305;-33.882;151.134;2023-03-14T06:33:22;22.80;99.90
16392;DHT22;8305;-33.882;151.134;2023-03-14T06:35:54;22.80;99.90
16392;DHT22;8305;-33.882;151.134;2023-03-14T06:38:25;22.80;99.90
16392;DHT22;8305;-33.882;151.134;2023-03-14T06:40:56;22.80;99.90
16392;DHT22;8305;-33.882;151.134;2023-03-14T06:43:27;22.80;99.90
16392;DHT22;8305;-33.882;151.134;2023-03-14T06:46:00;22.80;99.90
16392;DHT22;8305;-33.882;151.134;2023-03-14T06:48:31;22.80;99.90
16392;DHT22;8305;-33.882;151.134;2023-03-14T06:51:02;22.80;99.90
16392;DHT22;8305;-33.882;151.134;2023-03-14T06:53:33;22.80;99.90
16392;DHT22;8305;-33.882;151.134;2023-03-14T06:56:04;22.80;99.90
16392;DHT22;8305;-33.882;151.134;2023-03-14T06:58:36;22.80;99.90
16392;DHT22;8305;-33.882;151.134;2023-03-14T07:01:20;22.80;99.90
16392;DHT22;8305;-33.882;151.134;2023-03-14T07:03:52;22.80;99.90
16392;DHT22;8305;-33.882;151.134;2023-03-14T07:06:23;22.80;99.90
16392;DHT22;8305;-33.882;151.134;2023-03-14T07:08:54;22.70;99.90
16392;DHT22;8305;-33.882;151.134;2023-03-14T07:11:25;22.70;99.90
16392;DHT22;8305;-33.882;151.134;2023-03-14T07:13:56;22.70;99.90
16392;DHT22;8305;-33.882;151.134;2023-03-14T07:16:29;22.60;99.90
16392;DHT22;8305;-33.882;151.134;2023-03-14T07:19:01;22.60;99.90
16392;DHT22;8305;-33.882;151.134;2023-03-14T07:21:32;22.60;99.90
16392;DHT22;8305;-33.882;151.134;2023-03-14T07:24:03;22.50;99.90
16392;DHT22;8305;-33.882;151.134;2023-03-14T07:26:34;22.50;99.90
16392;DHT22;8305;-33.882;151.134;2023-03-14T07:29:05;22.50;99.90
16392;DHT22;8305;-33.882;151.134;2023-03-14T07:31:42;22.40;99.90
16392;DHT22;8305;-33.882;151.134;2023-03-14T07:34:13;22.40;99.90
16392;DHT22;8305;-33.882;151.134;2023-03-14T07:36:44;22.20;99.90
16392;DHT22;8305;-33.882;151.134;2023-03-14T07:39:15;21.90;99.90
16392;DHT22;8305;-33.882;151.134;2023-03-14T07:41:46;21.60;99.90
16392;DHT22;8305;-33.882;151.134;2023-03-14T07:44:17;21.40;99.90
16392;DHT22;8305;-33.882;151.134;2023-03-14T07:46:50;21.30;99.90
16392;DHT22;8305;-33.882;151.134;2023-03-14T07:49:22;21.20;99.90
16392;DHT22;8305;-33.882;151.134;2023-03-14T07:51:53;21.20;99.90
16392;DHT22;8305;-33.882;151.134;2023-03-14T07:54:24;21.10;99.90
16392;DHT22;8305;-33.882;151.134;2023-03-14T07:56:55;21.20;99.90
16392;DHT22;8305;-33.882;151.134;2023-03-14T07:59:26;21.10;99.90
16392;DHT22;8305;-33.882;151.134;2023-03-14T08:02:00;21.10;99.90
16392;DHT22;8305;-33.882;151.134;2023-03-14T08:04:34;21.10;99.90
16392;DHT22;8305;-33.882;151.134;2023-03-14T08:07:05;21.10;99.90
16392;DHT22;8305;-33.882;151.134;2023-03-14T08:09:36;21.10;99.90
16392;DHT22;8305;-33.882;151.134;2023-03-14T08:12:07;21.10;99.90
16392;DHT22;8305;-33.882;151.134;2023-03-14T08:14:39;21.10;99.90
16392;DHT22;8305;-33.882;151.134;2023-03-14T08:17:12;21.10;99.90
16392;DHT22;8305;-33.882;151.134;2023-03-14T08:19:43;21.10;99.90
16392;DHT22;8305;-33.882;151.134;2023-03-14T08:22:14;21.10;99.90
16392;DHT22;8305;-33.882;151.134;2023-03-14T08:24:45;21.10;99.90
16392;DHT22;8305;-33.882;151.134;2023-03-14T08:27:17;21.10;99.90
16392;DHT22;8305;-33.882;151.134;2023-03-14T08:29:48;21.10;99.90
16392;DHT22;8305;-33.882;151.134;2023-03-14T08:32:21;21.10;99.90
16392;DHT22;8305;-33.882;151.134;2023-03-14T08:34:52;21.10;99.90
16392;DHT22;8305;-33.882;151.134;2023-03-14T08:37:23;21.10;99.90
16392;DHT22;8305;-33.882;151.134;2023-03-14T08:39:55;21.10;99.90
16392;DHT22;8305;-33.882;151.134;2023-03-14T08:42:29;21.10;99.90
16392;DHT22;8305;-33.882;151.134;2023-03-14T08:45:00;21.10;99.90
16392;DHT22;8305;-33.882;151.134;2023-03-14T08:47:33;21.10;99.90
16392;DHT22;8305;-33.882;151.134;2023-03-14T08:50:06;21.10;99.90
16392;DHT22;8305;-33.882;151.134;2023-03-14T08:52:37;21.10;99.90
16392;DHT22;8305;-33.882;151.134;2023-03-14T08:55:09;21.10;99.90
16392;DHT22;8305;-33.882;151.134;2023-03-14T08:57:41;21.00;99.90
16392;DHT22;8305;-33.882;151.134;2023-03-14T09:00:13;21.00;99.90
16392;DHT22;8305;-33.882;151.134;2023-03-14T09:02:47;21.00;99.90
16392;DHT22;8305;-33.882;151.134;2023-03-14T09:05:18;21.00;99.90
16392;DHT22;8305;-33.882;151.134;2023-03-14T09:07:49;21.00;99.90
16392;DHT22;8305;-33.882;151.134;2023-03-14T09:10:20;21.00;99.90
16392;DHT22;8305;-33.882;151.134;2023-03-14T09:12:51;21.00;99.90
16392;DHT22;8305;-33.882;151.134;2023-03-14T09:15:22;21.00;99.90
16392;DHT22;8305;-33.882;151.134;2023-03-14T09:17:55;21.00;99.90
16392;DHT22;8305;-33.882;151.134;2023-03-14T09:20:27;21.00;99.90
16392;DHT22;8305;-33.882;151.134;2023-03-14T09:22:58;21.00;99.90
16392;DHT22;8305;-33.882;151.134;2023-03-14T09:25:29;21.00;99.90
16392;DHT22;8305;-33.882;151.134;2023-03-14T09:28:00;21.00;99.90
16392;DHT22;8305;-33.882;151.134;2023-03-14T09:30:31;21.00;99.90
16392;DHT22;8305;-33.882;151.134;2023-03-14T09:33:04;21.00;99.90
16392;DHT22;8305;-33.882;151.134;2023-03-14T09:35:37;21.00;99.90
16392;DHT22;8305;-33.882;151.134;2023-03-14T09:38:08;21.00;99.90
16392;DHT22;8305;-33.882;151.134;2023-03-14T09:40:39;21.00;99.90
16392;DHT22;8305;-33.882;151.134;2023-03-14T09:43:13;21.00;99.90
16392;DHT22;8305;-33.882;151.134;2023-03-14T09:45:46;21.00;99.90
16392;DHT22;8305;-33.882;151.134;2023-03-14T09:48:21;21.00;99.90
16392;DHT22;8305;-33.882;151.134;2023-03-14T09:50:54;21.00;99.90
16392;DHT22;8305;-33.882;151.134;2023-03-14T09:53:28;21.00;99.90
16392;DHT22;8305;-33.882;151.134;2023-03-14T09:56:01;21.10;99.90
16392;DHT22;8305;-33.882;151.134;2023-03-14T09:58:32;21.00;99.90
16392;DHT22;8305;-33.882;151.134;2023-03-14T10:01:04;21.10;99.90
16392;DHT22;8305;-33.882;151.134;2023-03-14T10:03:37;21.00;99.90
16392;DHT22;8305;-33.882;151.134;2023-03-14T10:06:12;21.00;99.90
16392;DHT22;8305;-33.882;151.134;2023-03-14T10:08:44;21.00;99.90
16392;DHT22;8305;-33.882;151.134;2023-03-14T10:11:16;21.00;99.90
16392;DHT22;8305;-33.882;151.134;2023-03-14T10:14:03;21.00;99.90
16392;DHT22;8305;-33.882;151.134;2023-03-14T10:16:37;21.00;99.90
16392;DHT22;8305;-33.882;151.134;2023-03-14T10:19:12;21.00;99.90
16392;DHT22;8305;-33.882;151.134;2023-03-14T10:21:44;20.90;99.90
16392;DHT22;8305;-33.882;151.134;2023-03-14T10:24:26;21.00;99.90
16392;DHT22;8305;-33.882;151.134;2023-03-14T10:27:01;20.90;99.90
16392;DHT22;8305;-33.882;151.134;2023-03-14T10:29:33;20.90;99.90
16392;DHT22;8305;-33.882;151.134;2023-03-14T10:32:05;21.00;99.90
16392;DHT22;8305;-33.882;151.134;2023-03-14T10:34:39;21.00;99.90
16392;DHT22;8305;-33.882;151.134;2023-03-14T10:37:21;21.00;99.90
16392;DHT22;8305;-33.882;151.134;2023-03-14T10:39:54;21.00;99.90
16392;DHT22;8305;-33.882;151.134;2023-03-14T10:42:27;21.00;99.90
16392;DHT22;8305;-33.882;151.134;2023-03-14T10:45:02;21.00;99.90
16392;DHT22;8305;-33.882;151.134;2023-03-14T10:47:35;21.10;99.90
16392;DHT22;8305;-33.882;151.134;2023-03-14T10:50:24;21.10;99.90
16392;DHT22;8305;-33.882;151.134;2023-03-14T10:52:56;21.10;99.90
16392;DHT22;8305;-33.882;151.134;2023-03-14T10:55:28;21.10;99.90
16392;DHT22;8305;-33.882;151.134;2023-03-14T10:58:20;21.10;99.90
16392;DHT22;8305;-33.882;151.134;2023-03-14T11:01:05;21.10;99.90
16392;DHT22;8305;-33.882;151.134;2023-03-14T11:03:42;21.10;99.90
16392;DHT22;8305;-33.882;151.134;2023-03-14T11:06:19;21.10;99.90
16392;DHT22;8305;-33.882;151.134;2023-03-14T11:08:57;21.10;99.90
16392;DHT22;8305;-33.882;151.134;2023-03-14T11:11:33;21.10;99.90
16392;DHT22;8305;-33.882;151.134;2023-03-14T11:14:12;21.10;99.90
16392;DHT22;8305;-33.882;151.134;2023-03-14T11:16:53;21.10;99.90
16392;DHT22;8305;-33.882;151.134;2023-03-14T11:19:51;21.10;99.90
16392;DHT22;8305;-33.882;151.134;2023-03-14T11:22:32;21.10;99.90
16392;DHT22;8305;-33.882;151.134;2023-03-14T11:25:21;21.10;99.90
16392;DHT22;8305;-33.882;151.134;2023-03-14T11:28:05;21.10;99.90
16392;DHT22;8305;-33.882;151.134;2023-03-14T11:30:42;21.10;99.90
16392;DHT22;8305;-33.882;151.134;2023-03-14T11:33:16;21.10;99.90
16392;DHT22;8305;-33.882;151.134;2023-03-14T11:35:49;21.10;99.90
16392;DHT22;8305;-33.882;151.134;2023-03-14T11:38:31;21.10;99.90
16392;DHT22;8305;-33.882;151.134;2023-03-14T11:41:04;21.10;99.90
16392;DHT22;8305;-33.882;151.134;2023-03-14T11:43:40;21.10;99.90
16392;DHT22;8305;-33.882;151.134;2023-03-14T11:46:16;21.10;99.90
16392;DHT22;8305;-33.882;151.134;2023-03-14T11:48:58;21.10;99.90
16392;DHT22;8305;-33.882;151.134;2023-03-14T11:51:33;21.10;99.90
16392;DHT22;8305;-33.882;151.134;2023-03-14T11:54:15;21.10;99.90
16392;DHT22;8305;-33.882;151.134;2023-03-14T11:56:50;21.00;99.90
16392;DHT22;8305;-33.882;151.134;2023-03-14T11:59:27;21.00;99.90
16392;DHT22;8305;-33.882;151.134;2023-03-14T12:02:03;21.00;99.90
16392;DHT22;8305;-33.882;151.134;2023-03-14T12:04:46;21.00;99.90
16392;DHT22;8305;-33.882;151.134;2023-03-14T12:07:20;21.00;99.90
16392;DHT22;8305;-33.882;151.134;2023-03-14T12:09:54;21.00;99.90
16392;DHT22;8305;-33.882;151.134;2023-03-14T12:12:27;21.00;99.90
16392;DHT22;8305;-33.882;151.134;2023-03-14T12:15:00;21.00;99.90
16392;DHT22;8305;-33.882;151.134;2023-03-14T12:17:37;20.90;99.90
16392;DHT22;8305;-33.882;151.134;2023-03-14T12:20:18;20.90;99.90
16392;DHT22;8305;-33.882;151.134;2023-03-14T12:22:52;20.90;99.90
16392;DHT22;8305;-33.882;151.134;2023-03-14T12:25:27;20.90;99.90
16392;DHT22;8305;-33.882;151.134;2023-03-14T12:28:16;20.90;99.90
16392;DHT22;8305;-33.882;151.134;2023-03-14T12:30:48;20.90;99.90
16392;DHT22;8305;-33.882;151.134;2023-03-14T12:33:28;20.90;99.90
16392;DHT22;8305;-33.882;151.134;2023-03-14T12:36:02;20.90;99.90
16392;DHT22;8305;-33.882;151.134;2023-03-14T12:38:52;20.90;99.90
16392;DHT22;8305;-33.882;151.134;2023-03-14T12:41:35;20.90;99.90
16392;DHT22;8305;-33.882;151.134;2023-03-14T12:44:42;20.90;99.90
16392;DHT22;8305;-33.882;151.134;2023-03-14T12:53:38;20.90;99.90
16392;DHT22;8305;-33.882;151.134;2023-03-14T12:56:28;20.90;99.90
16392;DHT22;8305;-33.882;151.134;2023-03-14T12:59:22;20.90;99.90
16392;DHT22;8305;-33.882;151.134;2023-03-14T13:01:58;20.90;99.90
16392;DHT22;8305;-33.882;151.134;2023-03-14T13:04:33;20.80;99.90
16392;DHT22;8305;-33.882;151.134;2023-03-14T13:07:10;20.80;99.90
16392;DHT22;8305;-33.882;151.134;2023-03-14T13:10:02;20.80;99.90
16392;DHT22;8305;-33.882;151.134;2023-03-14T13:12:44;20.80;99.90
16392;DHT22;8305;-33.882;151.134;2023-03-14T13:15:29;20.80;99.90
16392;DHT22;8305;-33.882;151.134;2023-03-14T13:18:07;20.80;99.90
16392;DHT22;8305;-33.882;151.134;2023-03-14T13:20:44;20.70;99.90
16392;DHT22;8305;-33.882;151.134;2023-03-14T13:23:23;20.70;99.90
16392;DHT22;8305;-33.882;151.134;2023-03-14T13:25:55;20.70;99.90
16392;DHT22;8305;-33.882;151.134;2023-03-14T13:28:29;20.70;99.90
16392;DHT22;8305;-33.882;151.134;2023-03-14T13:31:02;20.70;99.90
16392;DHT22;8305;-33.882;151.134;2023-03-14T13:33:34;20.70;99.90
16392;DHT22;8305;-33.882;151.134;2023-03-14T13:36:06;20.70;99.90
16392;DHT22;8305;-33.882;151.134;2023-03-14T13:38:37;20.60;99.90
16392;DHT22;8305;-33.882;151.134;2023-03-14T13:41:10;20.60;99.90
16392;DHT22;8305;-33.882;151.134;2023-03-14T13:43:45;20.60;99.90
16392;DHT22;8305;-33.882;151.134;2023-03-14T13:46:19;20.60;99.90
16392;DHT22;8305;-33.882;151.134;2023-03-14T13:48:52;20.60;99.90
16392;DHT22;8305;-33.882;151.134;2023-03-14T13:51:24;20.70;99.90
16392;DHT22;8305;-33.882;151.134;2023-03-14T13:53:59;20.70;99.90
16392;DHT22;8305;-33.882;151.134;2023-03-14T13:56:32;20.70;99.90
16392;DHT22;8305;-33.882;151.134;2023-03-14T13:59:19;20.70;99.90
16392;DHT22;8305;-33.882;151.134;2023-03-14T14:01:52;20.70;99.90
16392;DHT22;8305;-33.882;151.134;2023-03-14T14:04:24;20.70;99.90
16392;DHT22;8305;-33.882;151.134;2023-03-14T14:06:57;20.70;99.90
16392;DHT22;8305;-33.882;151.134;2023-03-14T14:09:30;20.70;99.90
16392;DHT22;8305;-33.882;151.134;2023-03-14T14:12:03;20.70;99.90
16392;DHT22;8305;-33.882;151.134;2023-03-14T14:14:40;20.70;99.90
16392;DHT22;8305;-33.882;151.134;2023-03-14T14:17:16;20.60;99.90
16392;DHT22;8305;-33.882;151.134;2023-03-14T14:19:49;20.60;99.90
16392;DHT22;8305;-33.882;151.134;2023-03-14T14:22:21;20.60;99.90
16392;DHT22;8305;-33.882;151.134;2023-03-14T14:24:53;20.50;99.90
16392;DHT22;8305;-33.882;151.134;2023-03-14T14:27:28;20.50;99.90
16392;DHT22;8305;-33.882;151.134;2023-03-14T14:30:06;20.50;99.90
16392;DHT22;8305;-33.882;151.134;2023-03-14T14:32:38;20.50;99.90
16392;DHT22;8305;-33.882;151.134;2023-03-14T14:35:21;20.50;99.90
16392;DHT22;8305;-33.882;151.134;2023-03-14T14:37:53;20.50;99.90
16392;DHT22;8305;-33.882;151.134;2023-03-14T14:40:26;20.50;99.90
16392;DHT22;8305;-33.882;151.134;2023-03-14T14:43:03;20.50;99.90
16392;DHT22;8305;-33.882;151.134;2023-03-14T14:45:36;20.50;99.90
16392;DHT22;8305;-33.882;151.134;2023-03-14T14:48:10;20.40;99.90
16392;DHT22;8305;-33.882;151.134;2023-03-14T14:50:54;20.40;99.90
16392;DHT22;8305;-33.882;151.134;2023-03-14T14:53:29;20.40;99.90
16392;DHT22;8305;-33.882;151.134;2023-03-14T14:56:04;20.40;99.90
16392;DHT22;8305;-33.882;151.134;2023-03-14T14:58:39;20.40;99.90
16392;DHT22;8305;-33.882;151.134;2023-03-14T15:01:16;20.40;99.90
16392;DHT22;8305;-33.882;151.134;2023-03-14T15:03:49;20.40;99.90
16392;DHT22;8305;-33.882;151.134;2023-03-14T15:06:21;20.40;99.90
16392;DHT22;8305;-33.882;151.134;2023-03-14T15:08:55;20.40;99.90
16392;DHT22;8305;-33.882;151.134;2023-03-14T15:11:26;20.40;99.90
16392;DHT22;8305;-33.882;151.134;2023-03-14T15:13:57;20.40;99.90
16392;DHT22;8305;-33.882;151.134;2023-03-14T15:16:31;20.40;99.90
16392;DHT22;8305;-33.882;151.134;2023-03-14T15:19:08;20.40;99.90
16392;DHT22;8305;-33.882;151.134;2023-03-14T15:21:40;20.40;99.90
16392;DHT22;8305;-33.882;151.134;2023-03-14T15:24:11;20.40;99.90
16392;DHT22;8305;-33.882;151.134;2023-03-14T15:26:42;20.30;99.90
16392;DHT22;8305;-33.882;151.134;2023-03-14T15:29:14;20.30;99.90
16392;DHT22;8305;-33.882;151.134;2023-03-14T15:31:47;20.30;99.90
16392;DHT22;8305;-33.882;151.134;2023-03-14T15:34:18;20.30;99.90
16392;DHT22;8305;-33.882;151.134;2023-03-14T15:36:49;20.20;99.90
16392;DHT22;8305;-33.882;151.134;2023-03-14T15:39:20;20.20;99.90
16392;DHT22;8305;-33.882;151.134;2023-03-14T15:41:51;20.20;99.90
16392;DHT22;8305;-33.882;151.134;2023-03-14T15:44:22;20.10;99.90
16392;DHT22;8305;-33.882;151.134;2023-03-14T15:46:55;20.10;99.90
16392;DHT22;8305;-33.882;151.134;2023-03-14T15:49:26;20.10;99.90